sensor_id;sensor_type;location;lat;lon;timestamp;temperature;humidity
37460;DHT22;23318;50.966;5.284;2022-07-12T00:01:03;17.40;99.90
37460;DHT22;23318;50.966;5.284;2022-07-12T00:03:29;17.40;99.90
37460;DHT22;23318;50.966;5.284;2022-07-12T00:05:55;17.40;99.90
37460;DHT22;23318;50.966;5.284;2022-07-12T00:08:21;17.40;99.90
37460;DHT22;23318;50.966;5.284;2022-07-12T00:10:46;17.40;99.90
37460;DHT22;23318;50.966;5.284;2022-07-12T00:13:12;17.40;99.90
37460;DHT22;23318;50.966;5.284;2022-07-12T00:15:38;17.30;99.90
37460;DHT22;23318;50.966;5.284;2022-07-12T00:18:03;17.30;99.90
37460;DHT22;23318;50.966;5.284;2022-07-12T00:20:29;17.30;99.90
37460;DHT22;23318;50.966;5.284;2022-07-12T00:22:55;17.30;99.90
37460;DHT22;23318;50.966;5.284;2022-07-12T00:25:21;17.20;99.90
37460;DHT22;23318;50.966;5.284;2022-07-12T00:27:47;17.10;99.90
37460;DHT22;23318;50.966;5.284;2022-07-12T00:30:12;17.10;99.90
37460;DHT22;23318;50.966;5.284;2022-07-12T00:32:38;17.00;99.90
37460;DHT22;23318;50.966;5.284;2022-07-12T00:35:05;16.90;99.90
37460;DHT22;23318;50.966;5.284;2022-07-12T00:37:32;16.90;99.90
37460;DHT22;23318;50.966;5.284;2022-07-12T00:39:58;16.70;99.90
37460;DHT22;23318;50.966;5.284;2022-07-12T00:42:25;16.60;99.90
37460;DHT22;23318;50.966;5.284;2022-07-12T00:44:51;16.70;99.90
37460;DHT22;23318;50.966;5.284;2022-07-12T00:47:28;16.80;99.90
37460;DHT22;23318;50.966;5.284;2022-07-12T00:49:55;16.80;99.90
37460;DHT22;23318;50.966;5.284;2022-07-12T00:52:21;16.80;99.90
37460;DHT22;23318;50.966;5.284;2022-07-12T00:54:47;16.70;99.90
37460;DHT22;23318;50.966;5.284;2022-07-12T00:57:13;16.60;99.90
37460;DHT22;23318;50.966;5.284;2022-07-12T00:59:38;16.60;99.90
37460;DHT22;23318;50.966;5.284;2022-07-12T01:02:04;16.50;99.90
37460;DHT22;23318;50.966;5.284;2022-07-12T01:04:30;16.40;99.90
37460;DHT22;23318;50.966;5.284;2022-07-12T01:06:56;16.20;99.90
37460;DHT22;23318;50.966;5.284;2022-07-12T01:09:21;16.20;99.90
37460;DHT22;23318;50.966;5.284;2022-07-12T01:11:47;16.30;99.90
37460;DHT22;23318;50.966;5.284;2022-07-12T01:14:13;16.30;99.90
37460;DHT22;23318;50.966;5.284;2022-07-12T01:16:40;16.40;99.90
37460;DHT22;23318;50.966;5.284;2022-07-12T01:19:06;16.40;99.90
37460;DHT22;23318;50.966;5.284;2022-07-12T01:21:37;16.40;99.90
37460;DHT22;23318;50.966;5.284;2022-07-12T01:24:05;16.40;99.90
37460;DHT22;23318;50.966;5.284;2022-07-12T01:26:32;16.30;99.90
37460;DHT22;23318;50.966;5.284;2022-07-12T01:28:58;16.20;99.90
37460;DHT22;23318;50.966;5.284;2022-07-12T01:31:24;16.20;99.90
37460;DHT22;23318;50.966;5.284;2022-07-12T01:33:50;16.30;99.90
37460;DHT22;23318;50.966;5.284;2022-07-12T01:36:16;16.30;99.90
37460;DHT22;23318;50.966;5.284;2022-07-12T01:38:42;16.30;99.90
37460;DHT22;23318;50.966;5.284;2022-07-12T01:41:08;16.40;99.90
37460;DHT22;23318;50.966;5.284;2022-07-12T01:43:34;16.30;99.90
37460;DHT22;23318;50.966;5.284;2022-07-12T01:46:00;16.30;99.90
37460;DHT22;23318;50.966;5.284;2022-07-12T01:48:25;16.20;99.90
37460;DHT22;23318;50.966;5.284;2022-07-12T01:50:51;16.10;99.90
37460;DHT22;23318;50.966;5.284;2022-07-12T01:53:17;16.10;99.90
37460;DHT22;23318;50.966;5.284;2022-07-12T01:55:42;16.10;99.90
37460;DHT22;23318;50.966;5.284;2022-07-12T01:58:09;16.10;99.90
37460;DHT22;23318;50.966;5.284;2022-07-12T02:00:36;16.00;99.90
37460;DHT22;23318;50.966;5.284;2022-07-12T02:03:02;16.00;99.90
37460;DHT22;23318;50.966;5.284;2022-07-12T02:05:28;16.00;99.90
37460;DHT22;23318;50.966;5.284;2022-07-12T02:07:54;16.00;99.90
37460;DHT22;23318;50.966;5.284;2022-07-12T02:10:20;16.00;99.90
37460;DHT22;23318;50.966;5.284;2022-07-12T02:12:45;15.90;99.90
37460;DHT22;23318;50.966;5.284;2022-07-12T02:15:11;15.90;99.90
37460;DHT22;23318;50.966;5.284;2022-07-12T02:17:37;15.80;99.90
37460;DHT22;23318;50.966;5.284;2022-07-12T02:20:03;15.80;99.90
37460;DHT22;23318;50.966;5.284;2022-07-12T02:22:29;15.70;99.90
37460;DHT22;23318;50.966;5.284;2022-07-12T02:24:55;15.60;99.90
37460;DHT22;23318;50.966;5.284;2022-07-12T02:27:20;15.50;99.90
37460;DHT22;23318;50.966;5.284;2022-07-12T02:29:46;15.50;99.90
37460;DHT22;23318;50.966;5.284;2022-07-12T02:32:12;15.50;99.90
37460;DHT22;23318;50.966;5.284;2022-07-12T02:34:37;15.40;99.90
37460;DHT22;23318;50.966;5.284;2022-07-12T02:37:03;15.40;99.90
37460;DHT22;23318;50.966;5.284;2022-07-12T02:39:29;15.50;99.90
37460;DHT22;23318;50.966;5.284;2022-07-12T02:41:54;15.50;99.90
37460;DHT22;23318;50.966;5.284;2022-07-12T02:44:21;15.50;99.90
37460;DHT22;23318;50.966;5.284;2022-07-12T02:46:46;15.50;99.90
37460;DHT22;23318;50.966;5.284;2022-07-12T02:49:12;15.60;99.90
37460;DHT22;23318;50.966;5.284;2022-07-12T02:51:38;15.50;99.90
37460;DHT22;23318;50.966;5.284;2022-07-12T02:54:04;15.60;99.90
37460;DHT22;23318;50.966;5.284;2022-07-12T02:56:30;15.40;99.90
37460;DHT22;23318;50.966;5.284;2022-07-12T02:58:55;15.10;99.90
37460;DHT22;23318;50.966;5.284;2022-07-12T03:01:21;14.90;99.90
37460;DHT22;23318;50.966;5.284;2022-07-12T03:03:47;15.10;99.90
37460;DHT22;23318;50.966;5.284;2022-07-12T03:06:12;15.30;99.90
37460;DHT22;23318;50.966;5.284;2022-07-12T03:08:38;15.40;99.90
37460;DHT22;23318;50.966;5.284;2022-07-12T03:11:04;15.30;99.90
37460;DHT22;23318;50.966;5.284;2022-07-12T03:13:30;15.20;99.90
37460;DHT22;23318;50.966;5.284;2022-07-12T03:15:55;15.20;99.90
37460;DHT22;23318;50.966;5.284;2022-07-12T03:18:21;15.30;99.90
37460;DHT22;23318;50.966;5.284;2022-07-12T03:20:47;15.30;99.90
37460;DHT22;23318;50.966;5.284;2022-07-12T03:23:14;15.20;99.90
37460;DHT22;23318;50.966;5.284;2022-07-12T03:25:39;15.20;99.90
37460;DHT22;23318;50.966;5.284;2022-07-12T03:28:05;15.20;99.90
37460;DHT22;23318;50.966;5.284;2022-07-12T03:30:31;15.30;99.90
37460;DHT22;23318;50.966;5.284;2022-07-12T03:32:56;15.20;99.90
37460;DHT22;23318;50.966;5.284;2022-07-12T03:35:22;15.30;99.90
37460;DHT22;23318;50.966;5.284;2022-07-12T03:37:50;15.20;99.90
37460;DHT22;23318;50.966;5.284;2022-07-12T03:40:18;15.20;99.90
37460;DHT22;23318;50.966;5.284;2022-07-12T03:42:45;15.30;99.90
37460;DHT22;23318;50.966;5.284;2022-07-12T03:45:12;15.20;99.90
37460;DHT22;23318;50.966;5.284;2022-07-12T03:47:38;15.30;99.90
37460;DHT22;23318;50.966;5.284;2022-07-12T03:50:05;15.30;99.90
37460;DHT22;23318;50.966;5.284;2022-07-12T03:52:32;15.30;99.90
37460;DHT22;23318;50.966;5.284;2022-07-12T03:54:58;15.20;99.90
37460;DHT22;23318;50.966;5.284;2022-07-12T03:57:23;15.20;99.90
37460;DHT22;23318;50.966;5.284;2022-07-12T03:59:51;15.30;99.90
37460;DHT22;23318;50.966;5.284;2022-07-12T04:02:17;15.20;99.90
37460;DHT22;23318;50.966;5.284;2022-07-12T04:04:43;15.00;99.90
37460;DHT22;23318;50.966;5.284;2022-07-12T04:07:08;15.00;99.90
37460;DHT22;23318;50.966;5.284;2022-07-12T04:09:34;14.90;99.90
37460;DHT22;23318;50.966;5.284;2022-07-12T04:12:00;15.20;99.90
37460;DHT22;23318;50.966;5.284;2022-07-12T04:14:25;15.00;99.90
37460;DHT22;23318;50.966;5.284;2022-07-12T04:16:54;14.90;99.90
37460;DHT22;23318;50.966;5.284;2022-07-12T04:19:19;15.10;99.90
37460;DHT22;23318;50.966;5.284;2022-07-12T04:21:46;15.10;99.90
37460;DHT22;23318;50.966;5.284;2022-07-12T04:24:12;14.90;99.90
37460;DHT22;23318;50.966;5.284;2022-07-12T04:26:37;14.40;99.90
37460;DHT22;23318;50.966;5.284;2022-07-12T04:29:03;14.30;99.90
37460;DHT22;23318;50.966;5.284;2022-07-12T04:31:28;14.60;99.90
37460;DHT22;23318;50.966;5.284;2022-07-12T04:33:54;14.60;99.90
37460;DHT22;23318;50.966;5.284;2022-07-12T04:36:20;14.90;99.90
37460;DHT22;23318;50.966;5.284;2022-07-12T04:38:45;15.30;99.90
37460;DHT22;23318;50.966;5.284;2022-07-12T04:41:11;15.70;99.90
37460;DHT22;23318;50.966;5.284;2022-07-12T04:43:36;15.90;99.90
37460;DHT22;23318;50.966;5.284;2022-07-12T04:46:09;16.10;99.90
37460;DHT22;23318;50.966;5.284;2022-07-12T04:48:35;16.40;99.90
37460;DHT22;23318;50.966;5.284;2022-07-12T04:51:01;16.60;99.90
37460;DHT22;23318;50.966;5.284;2022-07-12T04:53:28;16.30;99.90
37460;DHT22;23318;50.966;5.284;2022-07-12T04:55:56;15.60;99.90
37460;DHT22;23318;50.966;5.284;2022-07-12T04:58:23;15.70;99.90
37460;DHT22;23318;50.966;5.284;2022-07-12T05:00:49;16.30;99.90
37460;DHT22;23318;50.966;5.284;2022-07-12T05:03:15;16.60;99.90
37460;DHT22;23318;50.966;5.284;2022-07-12T05:05:41;16.30;99.90
37460;DHT22;23318;50.966;5.284;2022-07-12T05:08:06;16.00;99.90
37460;DHT22;23318;50.966;5.284;2022-07-12T05:10:32;15.50;99.90
37460;DHT22;23318;50.966;5.284;2022-07-12T05:12:58;15.50;99.90
37460;DHT22;23318;50.966;5.284;2022-07-12T05:15:23;15.70;99.90
37460;DHT22;23318;50.966;5.284;2022-07-12T05:17:49;15.50;99.90
37460;DHT22;23318;50.966;5.284;2022-07-12T05:20:15;16.10;99.90
37460;DHT22;23318;50.966;5.284;2022-07-12T05:22:41;16.60;99.90
37460;DHT22;23318;50.966;5.284;2022-07-12T05:25:07;16.90;99.90
37460;DHT22;23318;50.966;5.284;2022-07-12T05:27:34;17.30;99.90
37460;DHT22;23318;50.966;5.284;2022-07-12T05:30:00;16.80;99.90
37460;DHT22;23318;50.966;5.284;2022-07-12T05:32:26;16.60;99.90
37460;DHT22;23318;50.966;5.284;2022-07-12T05:34:51;16.40;99.90
37460;DHT22;23318;50.966;5.284;2022-07-12T05:37:17;16.30;99.90
37460;DHT22;23318;50.966;5.284;2022-07-12T05:39:43;16.50;99.90
37460;DHT22;23318;50.966;5.284;2022-07-12T05:42:08;16.50;99.90
37460;DHT22;23318;50.966;5.284;2022-07-12T05:44:34;16.50;99.90
37460;DHT22;23318;50.966;5.284;2022-07-12T05:47:00;16.60;99.90
37460;DHT22;23318;50.966;5.284;2022-07-12T05:49:26;16.50;99.90
37460;DHT22;23318;50.966;5.284;2022-07-12T05:51:51;16.90;99.90
37460;DHT22;23318;50.966;5.284;2022-07-12T05:54:35;17.40;99.90
37460;DHT22;23318;50.966;5.284;2022-07-12T05:57:01;17.70;99.90
37460;DHT22;23318;50.966;5.284;2022-07-12T05:59:27;17.70;99.90
37460;DHT22;23318;50.966;5.284;2022-07-12T06:01:54;17.80;99.90
37460;DHT22;23318;50.966;5.284;2022-07-12T06:04:20;17.80;99.90
37460;DHT22;23318;50.966;5.284;2022-07-12T06:06:45;17.90;99.90
37460;DHT22;23318;50.966;5.284;2022-07-12T06:09:11;18.00;99.90
37460;DHT22;23318;50.966;5.284;2022-07-12T06:11:36;18.20;99.90
37460;DHT22;23318;50.966;5.284;2022-07-12T06:14:03;18.10;99.90
37460;DHT22;23318;50.966;5.284;2022-07-12T06:16:28;18.40;99.90
37460;DHT22;23318;50.966;5.284;2022-07-12T06:18:55;18.60;99.90
37460;DHT22;23318;50.966;5.284;2022-07-12T06:21:21;18.30;99.90
37460;DHT22;23318;50.966;5.284;2022-07-12T06:23:46;18.60;99.90
37460;DHT22;23318;50.966;5.284;2022-07-12T06:26:12;18.90;99.90
37460;DHT22;23318;50.966;5.284;2022-07-12T06:28:38;19.40;99.90
37460;DHT22;23318;50.966;5.284;2022-07-12T06:31:03;19.80;99.90
37460;DHT22;23318;50.966;5.284;2022-07-12T06:33:29;19.60;99.90
37460;DHT22;23318;50.966;5.284;2022-07-12T06:35:55;19.10;99.90
37460;DHT22;23318;50.966;5.284;2022-07-12T06:38:21;19.00;99.90
37460;DHT22;23318;50.966;5.284;2022-07-12T06:40:46;19.60;99.90
37460;DHT22;23318;50.966;5.284;2022-07-12T06:43:12;20.20;99.90
37460;DHT22;23318;50.966;5.284;2022-07-12T06:45:40;20.50;99.90
37460;DHT22;23318;50.966;5.284;2022-07-12T06:48:05;20.70;99.90
37460;DHT22;23318;50.966;5.284;2022-07-12T06:50:31;20.40;99.90
37460;DHT22;23318;50.966;5.284;2022-07-12T06:52:57;20.40;99.90
37460;DHT22;23318;50.966;5.284;2022-07-12T06:55:23;20.20;99.90
37460;DHT22;23318;50.966;5.284;2022-07-12T06:57:49;19.90;99.90
37460;DHT22;23318;50.966;5.284;2022-07-12T07:00:14;19.40;99.90
37460;DHT22;23318;50.966;5.284;2022-07-12T07:02:40;19.50;99.90
37460;DHT22;23318;50.966;5.284;2022-07-12T07:05:07;19.80;99.90
37460;DHT22;23318;50.966;5.284;2022-07-12T07:07:32;20.10;99.90
37460;DHT22;23318;50.966;5.284;2022-07-12T07:09:59;20.90;99.90
37460;DHT22;23318;50.966;5.284;2022-07-12T07:12:24;21.10;99.90
37460;DHT22;23318;50.966;5.284;2022-07-12T07:14:50;21.40;99.90
37460;DHT22;23318;50.966;5.284;2022-07-12T07:17:16;21.60;99.90
37460;DHT22;23318;50.966;5.284;2022-07-12T07:19:43;21.80;99.90
37460;DHT22;23318;50.966;5.284;2022-07-12T07:22:10;21.70;99.90
37460;DHT22;23318;50.966;5.284;2022-07-12T07:24:36;21.50;99.90
37460;DHT22;23318;50.966;5.284;2022-07-12T07:27:01;21.50;99.90
37460;DHT22;23318;50.966;5.284;2022-07-12T07:29:27;21.90;99.90
37460;DHT22;23318;50.966;5.284;2022-07-12T07:32:11;22.20;99.90
37460;DHT22;23318;50.966;5.284;2022-07-12T07:34:37;22.30;99.90
37460;DHT22;23318;50.966;5.284;2022-07-12T07:37:03;22.30;99.90
37460;DHT22;23318;50.966;5.284;2022-07-12T07:39:29;22.30;99.90
37460;DHT22;23318;50.966;5.284;2022-07-12T07:41:55;22.20;99.90
37460;DHT22;23318;50.966;5.284;2022-07-12T07:44:20;22.40;99.90
37460;DHT22;23318;50.966;5.284;2022-07-12T07:46:46;22.60;99.90
37460;DHT22;23318;50.966;5.284;2022-07-12T07:49:11;22.60;99.90
37460;DHT22;23318;50.966;5.284;2022-07-12T07:51:37;22.50;99.90
37460;DHT22;23318;50.966;5.284;2022-07-12T07:54:03;22.50;99.90
37460;DHT22;23318;50.966;5.284;2022-07-12T07:56:29;22.40;99.90
37460;DHT22;23318;50.966;5.284;2022-07-12T07:58:55;22.60;99.90
37460;DHT22;23318;50.966;5.284;2022-07-12T08:01:20;22.80;99.90
37460;DHT22;23318;50.966;5.284;2022-07-12T08:04:06;23.00;99.90
37460;DHT22;23318;50.966;5.284;2022-07-12T08:06:32;23.10;99.90
37460;DHT22;23318;50.966;5.284;2022-07-12T08:08:57;23.10;99.90
37460;DHT22;23318;50.966;5.284;2022-07-12T08:11:23;23.40;99.90
37460;DHT22;23318;50.966;5.284;2022-07-12T08:13:49;23.50;99.90
37460;DHT22;23318;50.966;5.284;2022-07-12T08:16:14;23.60;99.90
37460;DHT22;23318;50.966;5.284;2022-07-12T08:18:40;23.70;99.90
37460;DHT22;23318;50.966;5.284;2022-07-12T08:21:06;23.20;99.90
37460;DHT22;23318;50.966;5.284;2022-07-12T08:23:32;22.80;99.90
37460;DHT22;23318;50.966;5.284;2022-07-12T08:25:57;23.10;99.90
37460;DHT22;23318;50.966;5.284;2022-07-12T08:28:23;23.30;99.90
37460;DHT22;23318;50.966;5.284;2022-07-12T08:30:48;23.00;99.90
37460;DHT22;23318;50.966;5.284;2022-07-12T08:33:14;22.70;99.90
37460;DHT22;23318;50.966;5.284;2022-07-12T08:35:40;22.70;99.90
37460;DHT22;23318;50.966;5.284;2022-07-12T08:38:06;22.70;99.90
37460;DHT22;23318;50.966;5.284;2022-07-12T08:40:32;23.10;99.90
37460;DHT22;23318;50.966;5.284;2022-07-12T08:42:58;22.70;99.90
37460;DHT22;23318;50.966;5.284;2022-07-12T08:45:25;23.40;99.90
37460;DHT22;23318;50.966;5.284;2022-07-12T08:47:51;23.80;99.90
37460;DHT22;23318;50.966;5.284;2022-07-12T08:50:20;24.40;99.90
37460;DHT22;23318;50.966;5.284;2022-07-12T08:52:52;24.70;99.90
37460;DHT22;23318;50.966;5.284;2022-07-12T08:55:24;25.20;99.90
37460;DHT22;23318;50.966;5.284;2022-07-12T08:57:52;25.30;99.90
37460;DHT22;23318;50.966;5.284;2022-07-12T09:00:19;24.80;99.90
37460;DHT22;23318;50.966;5.284;2022-07-12T09:05:18;25.00;99.90
37460;DHT22;23318;50.966;5.284;2022-07-12T09:07:45;25.50;99.90
37460;DHT22;23318;50.966;5.284;2022-07-12T09:10:11;25.30;99.90
37460;DHT22;23318;50.966;5.284;2022-07-12T09:12:38;25.10;99.90
37460;DHT22;23318;50.966;5.284;2022-07-12T09:15:23;25.50;99.90
37460;DHT22;23318;50.966;5.284;2022-07-12T09:17:59;25.00;99.90
37460;DHT22;23318;50.966;5.284;2022-07-12T09:20:32;24.90;99.90
37460;DHT22;23318;50.966;5.284;2022-07-12T09:23:00;24.90;99.90
37460;DHT22;23318;50.966;5.284;2022-07-12T09:25:27;25.30;99.90
37460;DHT22;23318;50.966;5.284;2022-07-12T09:27:56;24.90;99.90
37460;DHT22;23318;50.966;5.284;2022-07-12T09:30:24;24.40;99.90
37460;DHT22;23318;50.966;5.284;2022-07-12T09:33:01;23.90;99.90
37460;DHT22;23318;50.966;5.284;2022-07-12T09:38:39;24.20;99.90
37460;DHT22;23318;50.966;5.284;2022-07-12T09:41:06;24.20;99.90
37460;DHT22;23318;50.966;5.284;2022-07-12T09:43:33;23.80;99.90
37460;DHT22;23318;50.966;5.284;2022-07-12T09:45:59;23.90;99.90
37460;DHT22;23318;50.966;5.284;2022-07-12T09:48:26;24.10;99.90
37460;DHT22;23318;50.966;5.284;2022-07-12T09:50:55;24.20;99.90
37460;DHT22;23318;50.966;5.284;2022-07-12T09:53:30;24.50;99.90
37460;DHT22;23318;50.966;5.284;2022-07-12T09:56:05;24.50;99.90
37460;DHT22;23318;50.966;5.284;2022-07-12T09:58:36;24.70;99.90
37460;DHT22;23318;50.966;5.284;2022-07-12T10:01:06;25.00;99.90
37460;DHT22;23318;50.966;5.284;2022-07-12T10:03:33;25.10;99.90
37460;DHT22;23318;50.966;5.284;2022-07-12T10:06:01;25.60;99.90
37460;DHT22;23318;50.966;5.284;2022-07-12T10:08:30;25.90;99.90
37460;DHT22;23318;50.966;5.284;2022-07-12T10:10:58;26.10;99.90
37460;DHT22;23318;50.966;5.284;2022-07-12T10:13:25;26.30;99.90
37460;DHT22;23318;50.966;5.284;2022-07-12T10:15:51;26.30;99.90
37460;DHT22;23318;50.966;5.284;2022-07-12T10:18:19;25.50;99.90
37460;DHT22;23318;50.966;5.284;2022-07-12T10:20:46;26.10;99.90
37460;DHT22;23318;50.966;5.284;2022-07-12T10:23:32;26.70;99.90
37460;DHT22;23318;50.966;5.284;2022-07-12T10:26:24;27.20;99.00
37460;DHT22;23318;50.966;5.284;2022-07-12T10:29:09;26.70;99.90
37460;DHT22;23318;50.966;5.284;2022-07-12T10:31:39;26.00;99.90
37460;DHT22;23318;50.966;5.284;2022-07-12T10:34:19;25.90;99.90
37460;DHT22;23318;50.966;5.284;2022-07-12T10:39:22;27.10;99.90
37460;DHT22;23318;50.966;5.284;2022-07-12T10:44:39;26.90;99.90
37460;DHT22;23318;50.966;5.284;2022-07-12T10:47:07;27.30;99.50
37460;DHT22;23318;50.966;5.284;2022-07-12T10:49:34;27.10;99.10
37460;DHT22;23318;50.966;5.284;2022-07-12T10:57:42;27.50;98.00
37460;DHT22;23318;50.966;5.284;2022-07-12T11:00:12;28.70;96.40
37460;DHT22;23318;50.966;5.284;2022-07-12T11:02:39;30.00;96.00
37460;DHT22;23318;50.966;5.284;2022-07-12T11:05:05;30.60;93.70
37460;DHT22;23318;50.966;5.284;2022-07-12T11:07:30;31.90;93.10
37460;DHT22;23318;50.966;5.284;2022-07-12T11:09:56;31.50;92.70
37460;DHT22;23318;50.966;5.284;2022-07-12T11:12:29;32.30;92.50
37460;DHT22;23318;50.966;5.284;2022-07-12T11:14:55;32.40;91.30
37460;DHT22;23318;50.966;5.284;2022-07-12T11:17:29;30.50;92.30
37460;DHT22;23318;50.966;5.284;2022-07-12T11:20:09;29.70;94.00
37460;DHT22;23318;50.966;5.284;2022-07-12T11:22:40;31.50;93.60
37460;DHT22;23318;50.966;5.284;2022-07-12T11:25:11;33.30;91.40
37460;DHT22;23318;50.966;5.284;2022-07-12T11:27:37;32.60;90.30
37460;DHT22;23318;50.966;5.284;2022-07-12T11:30:04;33.20;90.20
37460;DHT22;23318;50.966;5.284;2022-07-12T11:32:35;33.20;90.80
37460;DHT22;23318;50.966;5.284;2022-07-12T11:35:01;32.70;90.80
37460;DHT22;23318;50.966;5.284;2022-07-12T11:37:26;32.30;90.90
37460;DHT22;23318;50.966;5.284;2022-07-12T11:39:52;33.50;90.00
37460;DHT22;23318;50.966;5.284;2022-07-12T11:42:18;35.30;86.90
37460;DHT22;23318;50.966;5.284;2022-07-12T11:44:44;33.70;85.50
37460;DHT22;23318;50.966;5.284;2022-07-12T11:47:11;32.30;87.90
37460;DHT22;23318;50.966;5.284;2022-07-12T11:49:41;32.00;88.50
37460;DHT22;23318;50.966;5.284;2022-07-12T11:52:08;31.80;88.70
37460;DHT22;23318;50.966;5.284;2022-07-12T11:54:33;33.90;87.40
37460;DHT22;23318;50.966;5.284;2022-07-12T11:57:10;35.10;84.90
37460;DHT22;23318;50.966;5.284;2022-07-12T11:59:36;35.50;83.10
37460;DHT22;23318;50.966;5.284;2022-07-12T12:02:03;35.60;81.90
37460;DHT22;23318;50.966;5.284;2022-07-12T12:04:29;35.60;83.10
37460;DHT22;23318;50.966;5.284;2022-07-12T12:06:55;36.10;79.90
37460;DHT22;23318;50.966;5.284;2022-07-12T12:09:20;36.40;78.70
37460;DHT22;23318;50.966;5.284;2022-07-12T12:11:46;37.00;78.80
37460;DHT22;23318;50.966;5.284;2022-07-12T12:14:12;37.40;77.70
37460;DHT22;23318;50.966;5.284;2022-07-12T12:16:39;36.90;74.40
37460;DHT22;23318;50.966;5.284;2022-07-12T12:19:10;37.80;74.80
37460;DHT22;23318;50.966;5.284;2022-07-12T12:21:36;37.90;73.80
37460;DHT22;23318;50.966;5.284;2022-07-12T12:24:09;36.90;73.20
37460;DHT22;23318;50.966;5.284;2022-07-12T12:26:35;36.30;73.90
37460;DHT22;23318;50.966;5.284;2022-07-12T12:29:01;35.80;73.10
37460;DHT22;23318;50.966;5.284;2022-07-12T12:31:27;35.80;72.90
37460;DHT22;23318;50.966;5.284;2022-07-12T12:33:55;35.10;73.10
37460;DHT22;23318;50.966;5.284;2022-07-12T12:36:29;35.60;72.60
37460;DHT22;23318;50.966;5.284;2022-07-12T12:38:59;37.00;71.20
37460;DHT22;23318;50.966;5.284;2022-07-12T12:41:30;39.50;69.10
37460;DHT22;23318;50.966;5.284;2022-07-12T12:44:04;40.50;68.10
37460;DHT22;23318;50.966;5.284;2022-07-12T12:49:50;40.30;65.10
37460;DHT22;23318;50.966;5.284;2022-07-12T12:52:16;38.70;65.70
37460;DHT22;23318;50.966;5.284;2022-07-12T12:54:42;36.00;64.20
37460;DHT22;23318;50.966;5.284;2022-07-12T12:57:10;34.40;66.60
37460;DHT22;23318;50.966;5.284;2022-07-12T12:59:36;35.40;66.20
37460;DHT22;23318;50.966;5.284;2022-07-12T13:02:03;35.80;68.10
37460;DHT22;23318;50.966;5.284;2022-07-12T13:04:31;35.00;68.90
37460;DHT22;23318;50.966;5.284;2022-07-12T13:06:57;35.60;68.10
37460;DHT22;23318;50.966;5.284;2022-07-12T13:09:23;36.00;67.50
37460;DHT22;23318;50.966;5.284;2022-07-12T13:11:49;35.60;68.80
37460;DHT22;23318;50.966;5.284;2022-07-12T13:14:15;35.20;69.10
37460;DHT22;23318;50.966;5.284;2022-07-12T13:16:41;35.00;71.40
37460;DHT22;23318;50.966;5.284;2022-07-12T13:19:07;34.70;67.10
37460;DHT22;23318;50.966;5.284;2022-07-12T13:21:35;36.70;66.80
37460;DHT22;23318;50.966;5.284;2022-07-12T13:24:01;37.50;66.10
37460;DHT22;23318;50.966;5.284;2022-07-12T13:26:26;38.30;65.80
37460;DHT22;23318;50.966;5.284;2022-07-12T13:28:55;38.10;63.30
37460;DHT22;23318;50.966;5.284;2022-07-12T13:31:22;38.50;62.30
37460;DHT22;23318;50.966;5.284;2022-07-12T13:33:48;38.10;62.60
37460;DHT22;23318;50.966;5.284;2022-07-12T13:36:14;36.50;63.10
37460;DHT22;23318;50.966;5.284;2022-07-12T13:38:40;36.50;64.70
37460;DHT22;23318;50.966;5.284;2022-07-12T13:41:06;37.10;64.50
37460;DHT22;23318;50.966;5.284;2022-07-12T13:43:32;37.80;62.90
37460;DHT22;23318;50.966;5.284;2022-07-12T13:45:58;38.40;62.70
37460;DHT22;23318;50.966;5.284;2022-07-12T13:48:23;39.70;62.70
37460;DHT22;23318;50.966;5.284;2022-07-12T13:50:49;38.20;62.80
37460;DHT22;23318;50.966;5.284;2022-07-12T13:53:15;38.20;62.70
37460;DHT22;23318;50.966;5.284;2022-07-12T13:55:42;39.20;62.30
37460;DHT22;23318;50.966;5.284;2022-07-12T13:58:09;40.40;60.70
37460;DHT22;23318;50.966;5.284;2022-07-12T14:00:35;41.50;59.90
37460;DHT22;23318;50.966;5.284;2022-07-12T14:03:01;41.20;60.30
37460;DHT22;23318;50.966;5.284;2022-07-12T14:05:27;40.70;60.00
37460;DHT22;23318;50.966;5.284;2022-07-12T14:07:53;40.30;59.40
37460;DHT22;23318;50.966;5.284;2022-07-12T14:10:19;38.00;59.60
37460;DHT22;23318;50.966;5.284;2022-07-12T14:12:45;39.80;58.70
37460;DHT22;23318;50.966;5.284;2022-07-12T14:15:12;40.30;57.00
37460;DHT22;23318;50.966;5.284;2022-07-12T14:17:48;40.30;56.00
37460;DHT22;23318;50.966;5.284;2022-07-12T14:20:21;39.80;56.60
37460;DHT22;23318;50.966;5.284;2022-07-12T14:22:48;39.10;57.70
37460;DHT22;23318;50.966;5.284;2022-07-12T14:25:14;37.60;60.50
37460;DHT22;23318;50.966;5.284;2022-07-12T14:27:41;37.10;61.40
37460;DHT22;23318;50.966;5.284;2022-07-12T14:30:08;36.30;62.50
37460;DHT22;23318;50.966;5.284;2022-07-12T14:32:35;36.80;61.60
37460;DHT22;23318;50.966;5.284;2022-07-12T14:35:01;36.60;61.60
37460;DHT22;23318;50.966;5.284;2022-07-12T14:37:27;37.00;61.50
37460;DHT22;23318;50.966;5.284;2022-07-12T14:39:53;37.80;61.30
37460;DHT22;23318;50.966;5.284;2022-07-12T14:42:19;39.10;59.90
37460;DHT22;23318;50.966;5.284;2022-07-12T14:44:46;39.70;59.00
37460;DHT22;23318;50.966;5.284;2022-07-12T14:47:11;38.80;59.70
37460;DHT22;23318;50.966;5.284;2022-07-12T14:49:39;40.40;58.30
37460;DHT22;23318;50.966;5.284;2022-07-12T14:52:05;41.90;57.90
37460;DHT22;23318;50.966;5.284;2022-07-12T14:54:34;40.40;58.50
37460;DHT22;23318;50.966;5.284;2022-07-12T14:56:59;38.50;60.10
37460;DHT22;23318;50.966;5.284;2022-07-12T14:59:25;39.90;58.40
37460;DHT22;23318;50.966;5.284;2022-07-12T15:01:51;40.30;58.60
37460;DHT22;23318;50.966;5.284;2022-07-12T15:04:17;40.60;55.00
37460;DHT22;23318;50.966;5.284;2022-07-12T15:06:43;39.90;55.90
37460;DHT22;23318;50.966;5.284;2022-07-12T15:09:09;40.90;55.30
37460;DHT22;23318;50.966;5.284;2022-07-12T15:11:35;42.70;55.40
37460;DHT22;23318;50.966;5.284;2022-07-12T15:14:02;43.10;54.20
37460;DHT22;23318;50.966;5.284;2022-07-12T15:16:28;43.30;54.00
37460;DHT22;23318;50.966;5.284;2022-07-12T15:18:53;42.10;54.50
37460;DHT22;23318;50.966;5.284;2022-07-12T15:21:19;40.50;54.60
37460;DHT22;23318;50.966;5.284;2022-07-12T15:23:46;39.70;54.00
37460;DHT22;23318;50.966;5.284;2022-07-12T15:26:12;38.70;54.40
37460;DHT22;23318;50.966;5.284;2022-07-12T15:28:56;37.60;58.50
37460;DHT22;23318;50.966;5.284;2022-07-12T15:31:22;36.70;57.60
37460;DHT22;23318;50.966;5.284;2022-07-12T15:33:49;36.50;58.20
37460;DHT22;23318;50.966;5.284;2022-07-12T15:36:15;36.40;59.20
37460;DHT22;23318;50.966;5.284;2022-07-12T15:38:41;35.90;57.20
37460;DHT22;23318;50.966;5.284;2022-07-12T15:41:09;35.90;57.40
37460;DHT22;23318;50.966;5.284;2022-07-12T15:43:35;35.80;55.70
37460;DHT22;23318;50.966;5.284;2022-07-12T15:46:01;36.00;56.20
37460;DHT22;23318;50.966;5.284;2022-07-12T15:48:27;35.90;54.10